KOXB

Ocean City Municipal Airport

Ocean City, Maryland, USA
METAR KOXB 172353Z AUTO 25006KT 10SM SCT075 13/09 A3009 RMK AO2 SLP189 T01330089 10194 20133 53027
Observed Flight Rules
Oct-17 @ 23:53 UTC (52 minutes ago) Visual Flight Rules
Wind Visibility Clouds
250° at 6 knots 10 miles
  • Scattered at 7,500' AGL
Temperatures Readings
Current 13°C / 55°F
Dewpoint 9°C / 48°F
Humidity 77%
Altimeter 30.09" Hg
Pressure 1018.9 hPa
Elevation 3
METAR KOXB 172353Z AUTO 25006KT 10SM SCT075 13/09 A3009 RMK AO2 SLP189 T01330089 10194 20133 53027
Observed Flight Rules
Oct-17 @ 23:53 UTC
(52 minutes ago)
VFR
Wind Visibility
250° at 6 knots 10 miles
Clouds
  • Scattered at 7,500' AGL
Temperature Dewpoint
13°C / 55°F 9°C / 48°F
Humidity Altimeter Pressure
77% 30.09" Hg 1018.9 hPa